sensor_id;sensor_type;location;lat;lon;timestamp;pressure;altitude;pressure_sealevel;temperature;humidity
2675;BME280;1347;42.122;24.746;2022-09-13T00:01:25;99189.50;;;18.82;60.65
2675;BME280;1347;42.122;24.746;2022-09-13T00:03:53;99198.25;;;18.80;60.81
2675;BME280;1347;42.122;24.746;2022-09-13T00:06:21;99196.34;;;18.77;60.98
2675;BME280;1347;42.122;24.746;2022-09-13T00:08:48;99184.81;;;18.79;60.90
2675;BME280;1347;42.122;24.746;2022-09-13T00:11:16;99186.09;;;18.74;61.18
2675;BME280;1347;42.122;24.746;2022-09-13T00:13:44;99180.63;;;18.70;60.82
2675;BME280;1347;42.122;24.746;2022-09-13T00:16:13;99186.63;;;18.69;60.80
2675;BME280;1347;42.122;24.746;2022-09-13T00:18:41;99182.28;;;18.68;60.93
2675;BME280;1347;42.122;24.746;2022-09-13T00:21:11;99174.44;;;18.63;60.68
2675;BME280;1347;42.122;24.746;2022-09-13T00:23:39;99178.47;;;18.62;60.52
2675;BME280;1347;42.122;24.746;2022-09-13T00:26:08;99176.16;;;18.57;61.00
2675;BME280;1347;42.122;24.746;2022-09-13T00:28:35;99172.66;;;18.53;60.97
2675;BME280;1347;42.122;24.746;2022-09-13T00:31:04;99163.50;;;18.56;61.00
2675;BME280;1347;42.122;24.746;2022-09-13T00:33:31;99168.69;;;18.54;61.21
2675;BME280;1347;42.122;24.746;2022-09-13T00:36:02;99165.91;;;18.54;61.55
2675;BME280;1347;42.122;24.746;2022-09-13T00:38:31;99163.50;;;18.56;60.89
2675;BME280;1347;42.122;24.746;2022-09-13T00:41:00;99174.59;;;18.56;61.02
2675;BME280;1347;42.122;24.746;2022-09-13T00:43:45;99168.34;;;18.52;61.04
2675;BME280;1347;42.122;24.746;2022-09-13T00:46:16;99166.38;;;18.52;61.34
2675;BME280;1347;42.122;24.746;2022-09-13T00:48:46;99166.00;;;18.50;61.58
2675;BME280;1347;42.122;24.746;2022-09-13T00:51:15;99160.97;;;18.45;61.74
2675;BME280;1347;42.122;24.746;2022-09-13T00:53:47;99170.44;;;18.48;61.80
2675;BME280;1347;42.122;24.746;2022-09-13T00:56:19;99168.50;;;18.45;62.16
2675;BME280;1347;42.122;24.746;2022-09-13T00:58:52;99170.69;;;18.53;61.52
2675;BME280;1347;42.122;24.746;2022-09-13T01:01:26;99162.94;;;18.45;62.04
2675;BME280;1347;42.122;24.746;2022-09-13T01:03:55;99157.94;;;18.39;62.55
2675;BME280;1347;42.122;24.746;2022-09-13T01:06:24;99158.28;;;18.42;62.12
2675;BME280;1347;42.122;24.746;2022-09-13T01:08:55;99164.63;;;18.42;62.54
2675;BME280;1347;42.122;24.746;2022-09-13T01:11:33;99160.34;;;18.37;62.45
2675;BME280;1347;42.122;24.746;2022-09-13T01:14:04;99163.91;;;18.38;62.78
2675;BME280;1347;42.122;24.746;2022-09-13T01:16:32;99164.31;;;18.36;62.81
2675;BME280;1347;42.122;24.746;2022-09-13T01:18:59;99155.28;;;18.32;62.92
2675;BME280;1347;42.122;24.746;2022-09-13T01:22:14;99149.06;;;18.28;63.14
2675;BME280;1347;42.122;24.746;2022-09-13T01:25:33;99160.16;;;18.28;63.03
2675;BME280;1347;42.122;24.746;2022-09-13T01:28:17;99168.91;;;18.27;62.80
2675;BME280;1347;42.122;24.746;2022-09-13T01:30:57;99163.41;;;18.23;63.14
2675;BME280;1347;42.122;24.746;2022-09-13T01:33:36;99155.09;;;18.23;62.62
2675;BME280;1347;42.122;24.746;2022-09-13T01:36:31;99166.19;;;18.23;62.74
2675;BME280;1347;42.122;24.746;2022-09-13T01:39:03;99156.66;;;18.24;62.79
2675;BME280;1347;42.122;24.746;2022-09-13T01:41:52;99144.53;;;18.18;63.37
2675;BME280;1347;42.122;24.746;2022-09-13T01:44:38;99147.72;;;18.17;62.95
2675;BME280;1347;42.122;24.746;2022-09-13T01:47:21;99150.91;;;18.15;62.79
2675;BME280;1347;42.122;24.746;2022-09-13T01:50:01;99149.28;;;18.18;63.05
2675;BME280;1347;42.122;24.746;2022-09-13T01:52:37;99150.91;;;18.15;62.76
2675;BME280;1347;42.122;24.746;2022-09-13T01:55:13;99151.00;;;18.12;62.84
2675;BME280;1347;42.122;24.746;2022-09-13T01:57:48;99148.56;;;18.14;62.41
2675;BME280;1347;42.122;24.746;2022-09-13T02:00:17;99154.13;;;18.14;62.34
2675;BME280;1347;42.122;24.746;2022-09-13T02:02:48;99156.53;;;18.12;62.30
2675;BME280;1347;42.122;24.746;2022-09-13T02:05:21;99155.31;;;18.13;62.85
2675;BME280;1347;42.122;24.746;2022-09-13T02:07:55;99147.78;;;18.13;62.51
2675;BME280;1347;42.122;24.746;2022-09-13T02:10:26;99151.50;;;18.07;62.98
2675;BME280;1347;42.122;24.746;2022-09-13T02:12:56;99145.19;;;18.06;63.42
2675;BME280;1347;42.122;24.746;2022-09-13T02:15:27;99141.56;;;18.09;63.44
2675;BME280;1347;42.122;24.746;2022-09-13T02:18:03;99136.50;;;18.04;63.58
2675;BME280;1347;42.122;24.746;2022-09-13T02:20:35;99140.06;;;18.05;63.83
2675;BME280;1347;42.122;24.746;2022-09-13T02:23:07;99134.16;;;18.02;63.56
2675;BME280;1347;42.122;24.746;2022-09-13T02:25:37;99134.16;;;18.02;63.45
2675;BME280;1347;42.122;24.746;2022-09-13T02:28:08;99133.47;;;17.98;63.73
2675;BME280;1347;42.122;24.746;2022-09-13T02:30:39;99138.22;;;17.98;63.55
2675;BME280;1347;42.122;24.746;2022-09-13T02:33:11;99133.03;;;18.00;63.50
2675;BME280;1347;42.122;24.746;2022-09-13T02:35:44;99139.69;;;18.02;62.88
2675;BME280;1347;42.122;24.746;2022-09-13T02:38:17;99141.00;;;17.98;63.19
2675;BME280;1347;42.122;24.746;2022-09-13T02:40:54;99140.47;;;18.03;62.87
2675;BME280;1347;42.122;24.746;2022-09-13T02:43:27;99141.84;;;17.95;63.17
2675;BME280;1347;42.122;24.746;2022-09-13T02:46:09;99140.56;;;17.99;62.48
2675;BME280;1347;42.122;24.746;2022-09-13T02:48:48;99142.63;;;17.95;62.24
2675;BME280;1347;42.122;24.746;2022-09-13T02:51:24;99143.13;;;17.90;62.27
2675;BME280;1347;42.122;24.746;2022-09-13T02:54:03;99156.13;;;17.93;62.37
2675;BME280;1347;42.122;24.746;2022-09-13T02:56:39;99153.00;;;17.91;61.81
2675;BME280;1347;42.122;24.746;2022-09-13T02:59:14;99152.38;;;17.84;62.17
2675;BME280;1347;42.122;24.746;2022-09-13T03:01:45;99153.94;;;17.85;61.99
2675;BME280;1347;42.122;24.746;2022-09-13T03:04:15;99147.25;;;17.82;62.48
2675;BME280;1347;42.122;24.746;2022-09-13T03:06:42;99158.44;;;17.79;62.45
2675;BME280;1347;42.122;24.746;2022-09-13T03:09:09;99155.66;;;17.79;62.23
2675;BME280;1347;42.122;24.746;2022-09-13T03:11:54;99155.34;;;17.73;62.53
2675;BME280;1347;42.122;24.746;2022-09-13T03:14:32;99161.69;;;17.74;62.70
2675;BME280;1347;42.122;24.746;2022-09-13T03:17:11;99158.63;;;17.68;62.58
2675;BME280;1347;42.122;24.746;2022-09-13T03:19:50;99173.72;;;17.67;62.65
2675;BME280;1347;42.122;24.746;2022-09-13T03:22:44;99164.66;;;17.63;62.91
2675;BME280;1347;42.122;24.746;2022-09-13T03:25:23;99169.81;;;17.61;61.91
2675;BME280;1347;42.122;24.746;2022-09-13T03:28:02;99169.53;;;17.55;62.34
2675;BME280;1347;42.122;24.746;2022-09-13T03:30:37;99167.97;;;17.54;62.70
2675;BME280;1347;42.122;24.746;2022-09-13T03:33:15;99159.28;;;17.52;61.96
2675;BME280;1347;42.122;24.746;2022-09-13T03:35:51;99172.03;;;17.50;62.60
2675;BME280;1347;42.122;24.746;2022-09-13T03:38:26;99168.94;;;17.44;63.15
2675;BME280;1347;42.122;24.746;2022-09-13T03:40:58;99185.09;;;17.49;62.88
2675;BME280;1347;42.122;24.746;2022-09-13T03:43:29;99181.59;;;17.45;62.80
2675;BME280;1347;42.122;24.746;2022-09-13T03:46:03;99187.56;;;17.44;62.96
2675;BME280;1347;42.122;24.746;2022-09-13T03:48:34;99188.06;;;17.39;63.60
2675;BME280;1347;42.122;24.746;2022-09-13T03:51:04;99181.66;;;17.42;63.09
2675;BME280;1347;42.122;24.746;2022-09-13T03:53:34;99177.31;;;17.41;63.12
2675;BME280;1347;42.122;24.746;2022-09-13T03:56:11;99173.44;;;17.38;63.39
2675;BME280;1347;42.122;24.746;2022-09-13T03:58:39;99178.97;;;17.38;63.74
2675;BME280;1347;42.122;24.746;2022-09-13T04:01:06;99180.78;;;17.25;64.57
2675;BME280;1347;42.122;24.746;2022-09-13T04:03:34;99183.59;;;17.21;64.54
2675;BME280;1347;42.122;24.746;2022-09-13T04:06:01;99191.50;;;17.23;64.08
2675;BME280;1347;42.122;24.746;2022-09-13T04:08:30;99176.50;;;17.20;64.39
2675;BME280;1347;42.122;24.746;2022-09-13T04:10:57;99176.94;;;17.19;64.75
2675;BME280;1347;42.122;24.746;2022-09-13T04:13:24;99184.88;;;17.17;65.23
2675;BME280;1347;42.122;24.746;2022-09-13T04:15:54;99184.94;;;17.13;65.51
2675;BME280;1347;42.122;24.746;2022-09-13T04:18:21;99177.28;;;17.21;65.75
2675;BME280;1347;42.122;24.746;2022-09-13T04:20:52;99180.00;;;17.24;65.30
2675;BME280;1347;42.122;24.746;2022-09-13T04:23:20;99191.38;;;17.30;65.56
2675;BME280;1347;42.122;24.746;2022-09-13T04:25:49;99189.75;;;17.33;64.55
2675;BME280;1347;42.122;24.746;2022-09-13T04:28:16;99184.50;;;17.38;64.85
2675;BME280;1347;42.122;24.746;2022-09-13T04:30:44;99182.16;;;17.37;64.71
2675;BME280;1347;42.122;24.746;2022-09-13T04:33:11;99193.19;;;17.40;64.88
2675;BME280;1347;42.122;24.746;2022-09-13T04:35:38;99185.16;;;17.46;64.72
2675;BME280;1347;42.122;24.746;2022-09-13T04:38:05;99185.09;;;17.49;64.86
2675;BME280;1347;42.122;24.746;2022-09-13T04:40:33;99183.44;;;17.52;64.89
2675;BME280;1347;42.122;24.746;2022-09-13T04:43:03;99183.13;;;17.50;65.00
2675;BME280;1347;42.122;24.746;2022-09-13T04:45:30;99193.34;;;17.53;65.10
2675;BME280;1347;42.122;24.746;2022-09-13T04:47:57;99188.41;;;17.64;64.27
2675;BME280;1347;42.122;24.746;2022-09-13T04:50:24;99193.88;;;17.68;64.56
2675;BME280;1347;42.122;24.746;2022-09-13T04:52:53;99198.16;;;17.72;65.06
2675;BME280;1347;42.122;24.746;2022-09-13T04:55:21;99205.19;;;17.77;64.27
2675;BME280;1347;42.122;24.746;2022-09-13T04:57:52;99206.34;;;17.79;64.94
2675;BME280;1347;42.122;24.746;2022-09-13T05:00:22;99205.00;;;17.87;64.93
2675;BME280;1347;42.122;24.746;2022-09-13T05:02:54;99207.63;;;17.94;65.18
2675;BME280;1347;42.122;24.746;2022-09-13T05:05:21;99213.09;;;17.98;64.78
2675;BME280;1347;42.122;24.746;2022-09-13T05:07:50;99204.16;;;18.10;64.68
2675;BME280;1347;42.122;24.746;2022-09-13T05:10:17;99214.38;;;18.13;64.82
2675;BME280;1347;42.122;24.746;2022-09-13T05:12:45;99204.72;;;18.21;64.58
2675;BME280;1347;42.122;24.746;2022-09-13T05:15:11;99210.72;;;18.36;64.27
2675;BME280;1347;42.122;24.746;2022-09-13T05:17:40;99210.31;;;18.54;63.10
2675;BME280;1347;42.122;24.746;2022-09-13T05:20:07;99209.53;;;18.73;63.06
2675;BME280;1347;42.122;24.746;2022-09-13T05:22:34;99208.69;;;18.92;62.34
2675;BME280;1347;42.122;24.746;2022-09-13T05:25:01;99213.88;;;19.06;62.27
2675;BME280;1347;42.122;24.746;2022-09-13T05:27:28;99221.78;;;19.24;61.14
2675;BME280;1347;42.122;24.746;2022-09-13T05:29:55;99215.88;;;19.38;61.04
2675;BME280;1347;42.122;24.746;2022-09-13T05:32:22;99213.56;;;19.53;61.11
2675;BME280;1347;42.122;24.746;2022-09-13T05:34:51;99211.06;;;19.71;60.49
2675;BME280;1347;42.122;24.746;2022-09-13T05:37:18;99215.34;;;19.89;59.57
2675;BME280;1347;42.122;24.746;2022-09-13T05:39:44;99219.31;;;20.04;59.44
2675;BME280;1347;42.122;24.746;2022-09-13T05:42:11;99212.97;;;20.16;59.06
2675;BME280;1347;42.122;24.746;2022-09-13T05:44:38;99219.97;;;20.37;59.08
2675;BME280;1347;42.122;24.746;2022-09-13T05:47:05;99211.09;;;20.54;57.97
2675;BME280;1347;42.122;24.746;2022-09-13T05:49:32;99208.19;;;20.71;57.32
2675;BME280;1347;42.122;24.746;2022-09-13T05:52:01;99205.75;;;20.85;56.77
2675;BME280;1347;42.122;24.746;2022-09-13T05:54:28;99201.59;;;21.15;56.21
2675;BME280;1347;42.122;24.746;2022-09-13T05:56:55;99206.16;;;21.35;55.25
2675;BME280;1347;42.122;24.746;2022-09-13T05:59:22;99204.41;;;21.50;54.78
2675;BME280;1347;42.122;24.746;2022-09-13T06:01:50;99212.34;;;21.51;54.69
2675;BME280;1347;42.122;24.746;2022-09-13T06:04:17;99206.13;;;21.69;54.77
2675;BME280;1347;42.122;24.746;2022-09-13T06:06:43;99205.88;;;22.11;54.18
2675;BME280;1347;42.122;24.746;2022-09-13T06:09:12;99209.81;;;22.75;52.07
2675;BME280;1347;42.122;24.746;2022-09-13T06:11:39;99209.06;;;23.42;49.76
2675;BME280;1347;42.122;24.746;2022-09-13T06:14:05;99208.78;;;24.13;48.05
2675;BME280;1347;42.122;24.746;2022-09-13T06:16:32;99211.44;;;25.43;45.43
2675;BME280;1347;42.122;24.746;2022-09-13T06:18:59;99212.72;;;26.63;43.16
2675;BME280;1347;42.122;24.746;2022-09-13T06:21:26;99220.66;;;28.36;40.35
2675;BME280;1347;42.122;24.746;2022-09-13T06:23:53;99230.91;;;29.87;38.00
2675;BME280;1347;42.122;24.746;2022-09-13T06:26:22;99230.03;;;30.96;35.52
2675;BME280;1347;42.122;24.746;2022-09-13T06:28:52;99211.25;;;30.48;35.37
2675;BME280;1347;42.122;24.746;2022-09-13T06:31:21;99227.22;;;30.57;36.06
2675;BME280;1347;42.122;24.746;2022-09-13T06:33:54;99228.00;;;30.68;35.70
2675;BME280;1347;42.122;24.746;2022-09-13T06:36:22;99237.88;;;32.58;33.63
2675;BME280;1347;42.122;24.746;2022-09-13T06:38:49;99242.81;;;33.66;32.28
2675;BME280;1347;42.122;24.746;2022-09-13T06:41:17;99241.53;;;34.92;30.79
2675;BME280;1347;42.122;24.746;2022-09-13T06:43:46;99231.28;;;34.20;31.14
2675;BME280;1347;42.122;24.746;2022-09-13T06:46:15;99244.91;;;34.78;30.40
2675;BME280;1347;42.122;24.746;2022-09-13T06:48:43;99230.47;;;35.02;30.38
2675;BME280;1347;42.122;24.746;2022-09-13T06:51:12;99251.41;;;34.72;29.59
2675;BME280;1347;42.122;24.746;2022-09-13T06:53:40;99251.16;;;36.89;28.51
2675;BME280;1347;42.122;24.746;2022-09-13T06:56:10;99252.78;;;35.96;28.31
2675;BME280;1347;42.122;24.746;2022-09-13T06:58:38;99250.00;;;36.30;27.87
2675;BME280;1347;42.122;24.746;2022-09-13T07:01:09;99252.81;;;37.26;26.83
2675;BME280;1347;42.122;24.746;2022-09-13T07:03:38;99254.16;;;38.48;26.57
2675;BME280;1347;42.122;24.746;2022-09-13T07:06:07;99250.72;;;38.42;25.97
2675;BME280;1347;42.122;24.746;2022-09-13T07:08:34;99251.00;;;39.20;25.29
2675;BME280;1347;42.122;24.746;2022-09-13T07:11:02;99256.00;;;39.12;25.62
2675;BME280;1347;42.122;24.746;2022-09-13T07:13:28;99257.09;;;39.55;25.97
2675;BME280;1347;42.122;24.746;2022-09-13T07:15:55;99264.78;;;39.45;25.08
2675;BME280;1347;42.122;24.746;2022-09-13T07:18:24;99265.69;;;38.79;25.32
2675;BME280;1347;42.122;24.746;2022-09-13T07:20:50;99260.66;;;39.93;24.89
2675;BME280;1347;42.122;24.746;2022-09-13T07:23:17;99257.09;;;40.18;25.00
2675;BME280;1347;42.122;24.746;2022-09-13T07:25:53;99265.44;;;39.91;24.83
2675;BME280;1347;42.122;24.746;2022-09-13T07:28:19;99265.09;;;39.79;24.57
2675;BME280;1347;42.122;24.746;2022-09-13T07:30:46;99272.66;;;40.07;25.46
2675;BME280;1347;42.122;24.746;2022-09-13T07:33:13;99268.59;;;41.07;24.42
2675;BME280;1347;42.122;24.746;2022-09-13T07:35:42;99265.94;;;42.03;23.42
2675;BME280;1347;42.122;24.746;2022-09-13T07:38:09;99263.28;;;41.46;23.97
2675;BME280;1347;42.122;24.746;2022-09-13T07:40:36;99267.03;;;42.08;23.20
2675;BME280;1347;42.122;24.746;2022-09-13T07:43:03;99270.00;;;43.08;22.99
2675;BME280;1347;42.122;24.746;2022-09-13T07:45:30;99257.28;;;42.74;22.90
2675;BME280;1347;42.122;24.746;2022-09-13T07:47:57;99270.16;;;42.46;22.55
2675;BME280;1347;42.122;24.746;2022-09-13T07:50:23;99252.31;;;42.57;22.80
2675;BME280;1347;42.122;24.746;2022-09-13T07:52:52;99264.00;;;42.33;22.55
2675;BME280;1347;42.122;24.746;2022-09-13T07:55:19;99268.47;;;41.99;23.24
2675;BME280;1347;42.122;24.746;2022-09-13T07:57:46;99260.72;;;43.09;22.93
2675;BME280;1347;42.122;24.746;2022-09-13T08:00:13;99266.00;;;43.49;21.74
2675;BME280;1347;42.122;24.746;2022-09-13T08:02:41;99254.19;;;42.63;22.83
2675;BME280;1347;42.122;24.746;2022-09-13T08:05:08;99268.88;;;43.40;22.61
2675;BME280;1347;42.122;24.746;2022-09-13T08:07:34;99265.66;;;42.09;22.86
2675;BME280;1347;42.122;24.746;2022-09-13T08:10:03;99264.53;;;43.87;21.94
2675;BME280;1347;42.122;24.746;2022-09-13T08:12:30;99264.41;;;44.73;21.33
2675;BME280;1347;42.122;24.746;2022-09-13T08:14:57;99252.56;;;45.53;21.22
2675;BME280;1347;42.122;24.746;2022-09-13T08:17:24;99249.59;;;43.52;22.15
2675;BME280;1347;42.122;24.746;2022-09-13T08:19:51;99259.34;;;45.15;21.74
2675;BME280;1347;42.122;24.746;2022-09-13T08:22:18;99258.50;;;44.52;21.68
2675;BME280;1347;42.122;24.746;2022-09-13T08:24:45;99253.13;;;43.98;21.31
2675;BME280;1347;42.122;24.746;2022-09-13T08:27:14;99252.44;;;45.41;20.93
2675;BME280;1347;42.122;24.746;2022-09-13T08:29:41;99252.59;;;46.18;20.43
2675;BME280;1347;42.122;24.746;2022-09-13T08:32:08;99261.09;;;46.38;20.11
2675;BME280;1347;42.122;24.746;2022-09-13T08:34:35;99240.97;;;46.07;19.61
2675;BME280;1347;42.122;24.746;2022-09-13T08:37:02;99258.31;;;45.31;19.77
2675;BME280;1347;42.122;24.746;2022-09-13T08:39:29;99254.38;;;44.65;21.57
2675;BME280;1347;42.122;24.746;2022-09-13T08:42:05;99259.13;;;44.91;20.58
2675;BME280;1347;42.122;24.746;2022-09-13T08:44:43;99254.25;;;44.53;21.02
2675;BME280;1347;42.122;24.746;2022-09-13T08:47:21;99250.81;;;44.35;20.20
2675;BME280;1347;42.122;24.746;2022-09-13T08:50:00;99240.19;;;44.09;21.11
2675;BME280;1347;42.122;24.746;2022-09-13T08:52:33;99237.03;;;42.65;21.69
2675;BME280;1347;42.122;24.746;2022-09-13T08:55:07;99240.69;;;41.42;22.01
2675;BME280;1347;42.122;24.746;2022-09-13T08:57:43;99242.13;;;41.68;22.04
2675;BME280;1347;42.122;24.746;2022-09-13T09:00:18;99235.34;;;40.72;22.24
2675;BME280;1347;42.122;24.746;2022-09-13T09:03:07;99228.53;;;39.80;22.35
2675;BME280;1347;42.122;24.746;2022-09-13T09:05:43;99223.63;;;38.36;23.72
2675;BME280;1347;42.122;24.746;2022-09-13T09:08:16;99220.97;;;39.59;22.29
2675;BME280;1347;42.122;24.746;2022-09-13T09:10:48;99236.00;;;42.16;21.57
2675;BME280;1347;42.122;24.746;2022-09-13T09:13:20;99218.00;;;41.98;21.26
2675;BME280;1347;42.122;24.746;2022-09-13T09:15:55;99218.59;;;41.03;21.69
2675;BME280;1347;42.122;24.746;2022-09-13T09:18:28;99221.91;;;39.54;21.75
2675;BME280;1347;42.122;24.746;2022-09-13T09:20:58;99222.53;;;38.03;23.17
2675;BME280;1347;42.122;24.746;2022-09-13T09:23:29;99222.97;;;35.84;24.84
2675;BME280;1347;42.122;24.746;2022-09-13T09:26:12;99231.81;;;34.18;26.33
2675;BME280;1347;42.122;24.746;2022-09-13T09:28:40;99214.31;;;32.68;27.75
2675;BME280;1347;42.122;24.746;2022-09-13T09:31:13;99212.38;;;31.70;28.56
2675;BME280;1347;42.122;24.746;2022-09-13T09:33:59;99204.31;;;30.88;28.96
2675;BME280;1347;42.122;24.746;2022-09-13T09:36:36;99206.22;;;29.87;30.89
2675;BME280;1347;42.122;24.746;2022-09-13T09:39:09;99212.03;;;29.56;30.27
2675;BME280;1347;42.122;24.746;2022-09-13T09:41:37;99210.47;;;29.07;31.35
2675;BME280;1347;42.122;24.746;2022-09-13T09:44:15;99215.72;;;28.62;32.20
2675;BME280;1347;42.122;24.746;2022-09-13T09:46:46;99214.69;;;28.28;32.83
2675;BME280;1347;42.122;24.746;2022-09-13T09:49:16;99215.03;;;28.15;33.14
2675;BME280;1347;42.122;24.746;2022-09-13T09:52:01;99213.13;;;27.61;34.02
2675;BME280;1347;42.122;24.746;2022-09-13T09:54:33;99214.88;;;27.38;33.57
2675;BME280;1347;42.122;24.746;2022-09-13T09:57:00;99215.19;;;27.05;34.69
2675;BME280;1347;42.122;24.746;2022-09-13T09:59:29;99211.09;;;26.91;34.94
2675;BME280;1347;42.122;24.746;2022-09-13T10:02:00;99215.88;;;26.70;34.92
2675;BME280;1347;42.122;24.746;2022-09-13T10:04:32;99212.44;;;26.46;35.26
2675;BME280;1347;42.122;24.746;2022-09-13T10:07:19;99214.16;;;26.29;35.92
2675;BME280;1347;42.122;24.746;2022-09-13T10:09:57;99210.56;;;26.14;36.76
2675;BME280;1347;42.122;24.746;2022-09-13T10:12:26;99206.19;;;26.13;35.78
2675;BME280;1347;42.122;24.746;2022-09-13T10:15:09;99211.59;;;26.16;36.68
2675;BME280;1347;42.122;24.746;2022-09-13T10:17:41;99202.41;;;26.01;36.66
2675;BME280;1347;42.122;24.746;2022-09-13T10:20:19;99201.78;;;25.97;36.34
2675;BME280;1347;42.122;24.746;2022-09-13T10:23:09;99201.03;;;25.96;36.14
2675;BME280;1347;42.122;24.746;2022-09-13T10:25:37;99194.44;;;25.99;36.76
2675;BME280;1347;42.122;24.746;2022-09-13T10:28:10;99190.47;;;25.91;36.36
2675;BME280;1347;42.122;24.746;2022-09-13T10:30:40;99190.94;;;25.90;37.51
2675;BME280;1347;42.122;24.746;2022-09-13T10:33:20;99187.88;;;26.02;37.43
2675;BME280;1347;42.122;24.746;2022-09-13T10:35:52;99184.97;;;26.12;35.95
2675;BME280;1347;42.122;24.746;2022-09-13T10:38:27;99177.53;;;26.23;36.27
2675;BME280;1347;42.122;24.746;2022-09-13T10:40:56;99162.69;;;26.52;35.54
2675;BME280;1347;42.122;24.746;2022-09-13T10:43:27;99161.91;;;26.66;36.24
2675;BME280;1347;42.122;24.746;2022-09-13T10:45:55;99169.47;;;26.60;36.53
2675;BME280;1347;42.122;24.746;2022-09-13T10:48:24;99156.94;;;26.76;36.17
2675;BME280;1347;42.122;24.746;2022-09-13T10:51:03;99160.63;;;26.67;35.78
2675;BME280;1347;42.122;24.746;2022-09-13T10:53:36;99157.13;;;26.72;36.86
2675;BME280;1347;42.122;24.746;2022-09-13T10:56:04;99154.78;;;26.86;35.12
2675;BME280;1347;42.122;24.746;2022-09-13T10:58:32;99153.28;;;26.90;35.67
2675;BME280;1347;42.122;24.746;2022-09-13T11:01:28;99162.41;;;27.00;36.37
2675;BME280;1347;42.122;24.746;2022-09-13T11:07:07;99150.25;;;27.08;35.20
2675;BME280;1347;42.122;24.746;2022-09-13T11:09:44;99140.13;;;27.17;35.63
2675;BME280;1347;42.122;24.746;2022-09-13T11:12:17;99145.13;;;27.07;35.82
2675;BME280;1347;42.122;24.746;2022-09-13T11:14:56;99146.00;;;26.98;36.28
2675;BME280;1347;42.122;24.746;2022-09-13T11:17:40;99140.91;;;26.82;36.42
2675;BME280;1347;42.122;24.746;2022-09-13T11:20:22;99140.47;;;27.44;35.58
2675;BME280;1347;42.122;24.746;2022-09-13T11:25:58;99141.22;;;27.86;34.56
2675;BME280;1347;42.122;24.746;2022-09-13T11:28:36;99141.25;;;27.91;33.74
2675;BME280;1347;42.122;24.746;2022-09-13T11:31:25;99135.63;;;27.91;32.37
2675;BME280;1347;42.122;24.746;2022-09-13T11:34:07;99119.84;;;27.73;31.61
2675;BME280;1347;42.122;24.746;2022-09-13T11:36:59;99122.28;;;27.86;32.24
2675;BME280;1347;42.122;24.746;2022-09-13T11:39:37;99119.44;;;27.86;31.02
2675;BME280;1347;42.122;24.746;2022-09-13T11:42:17;99125.75;;;27.75;31.39
2675;BME280;1347;42.122;24.746;2022-09-13T11:45:04;99117.44;;;27.92;31.78
2675;BME280;1347;42.122;24.746;2022-09-13T11:47:43;99118.69;;;27.86;31.10
2675;BME280;1347;42.122;24.746;2022-09-13T11:50:26;99115.91;;;27.91;31.68
2675;BME280;1347;42.122;24.746;2022-09-13T11:53:10;99118.78;;;27.97;32.52
2675;BME280;1347;42.122;24.746;2022-09-13T11:55:44;99121.38;;;27.74;32.77
2675;BME280;1347;42.122;24.746;2022-09-13T11:58:18;99117.34;;;27.55;33.70
2675;BME280;1347;42.122;24.746;2022-09-13T12:00:50;99122.66;;;27.53;33.26
2675;BME280;1347;42.122;24.746;2022-09-13T12:03:24;99113.66;;;27.29;33.09
2675;BME280;1347;42.122;24.746;2022-09-13T12:05:57;99117.09;;;27.18;33.45
2675;BME280;1347;42.122;24.746;2022-09-13T12:08:30;99117.53;;;27.31;33.84
2675;BME280;1347;42.122;24.746;2022-09-13T12:11:02;99118.75;;;27.25;32.97
2675;BME280;1347;42.122;24.746;2022-09-13T12:13:31;99115.31;;;27.15;34.98
2675;BME280;1347;42.122;24.746;2022-09-13T12:16:04;99117.03;;;27.33;33.38
2675;BME280;1347;42.122;24.746;2022-09-13T12:18:36;99122.19;;;27.34;34.28
2675;BME280;1347;42.122;24.746;2022-09-13T12:21:08;99116.91;;;27.22;35.22
2675;BME280;1347;42.122;24.746;2022-09-13T12:23:41;99120.28;;;27.05;34.70
2675;BME280;1347;42.122;24.746;2022-09-13T12:26:14;99112.31;;;26.69;36.06
2675;BME280;1347;42.122;24.746;2022-09-13T12:28:44;99119.75;;;26.87;35.76
2675;BME280;1347;42.122;24.746;2022-09-13T12:31:16;99126.84;;;27.37;34.33
2675;BME280;1347;42.122;24.746;2022-09-13T12:33:46;99116.19;;;27.47;34.20
2675;BME280;1347;42.122;24.746;2022-09-13T12:36:34;99116.13;;;27.62;33.55
2675;BME280;1347;42.122;24.746;2022-09-13T12:45:41;99111.41;;;26.92;33.62
2675;BME280;1347;42.122;24.746;2022-09-13T12:48:45;99099.13;;;26.75;33.63
2675;BME280;1347;42.122;24.746;2022-09-13T12:51:28;99108.31;;;26.55;35.14
2675;BME280;1347;42.122;24.746;2022-09-13T12:57:14;99108.03;;;26.38;35.14
2675;BME280;1347;42.122;24.746;2022-09-13T13:00:07;99108.22;;;26.50;34.29
2675;BME280;1347;42.122;24.746;2022-09-13T13:02:39;99106.94;;;26.51;34.48
2675;BME280;1347;42.122;24.746;2022-09-13T13:05:19;99097.75;;;26.50;36.00
2675;BME280;1347;42.122;24.746;2022-09-13T13:07:52;99102.88;;;26.52;34.93
2675;BME280;1347;42.122;24.746;2022-09-13T13:10:26;99097.34;;;26.57;34.44
2675;BME280;1347;42.122;24.746;2022-09-13T13:12:55;99106.38;;;26.47;34.83
2675;BME280;1347;42.122;24.746;2022-09-13T13:15:55;99108.22;;;26.50;34.71
2675;BME280;1347;42.122;24.746;2022-09-13T13:18:28;99106.38;;;26.47;35.10
2675;BME280;1347;42.122;24.746;2022-09-13T13:23:46;99110.25;;;26.49;35.80
2675;BME280;1347;42.122;24.746;2022-09-13T13:26:42;99097.25;;;26.52;34.52
2675;BME280;1347;42.122;24.746;2022-09-13T13:29:15;99093.91;;;26.33;34.62
2675;BME280;1347;42.122;24.746;2022-09-13T13:31:45;99109.59;;;26.25;34.91
2675;BME280;1347;42.122;24.746;2022-09-13T13:34:37;99099.81;;;26.20;34.71
2675;BME280;1347;42.122;24.746;2022-09-13T13:37:25;99102.03;;;26.16;35.83
2675;BME280;1347;42.122;24.746;2022-09-13T13:45:58;99105.03;;;26.27;34.36
2675;BME280;1347;42.122;24.746;2022-09-13T13:48:45;99107.66;;;26.31;35.11
2675;BME280;1347;42.122;24.746;2022-09-13T13:51:18;99102.81;;;26.31;34.06
2675;BME280;1347;42.122;24.746;2022-09-13T13:53:52;99108.16;;;26.29;35.10
2675;BME280;1347;42.122;24.746;2022-09-13T13:56:24;99118.63;;;26.29;35.15
2675;BME280;1347;42.122;24.746;2022-09-13T13:58:57;99110.28;;;26.20;34.31
2675;BME280;1347;42.122;24.746;2022-09-13T14:01:28;99115.81;;;26.14;35.48
2675;BME280;1347;42.122;24.746;2022-09-13T14:10:22;99132.84;;;26.25;35.04